Tiempo atmosférico en la estación meteorológica de Málaga, Málaga (25 m.)



Fecha
DESCASC
Temp. máxima en grados centígrados (hora)
DESCASC
Temp. mínima en grados centígrados (hora)
DESCASC
Temp. media en grados centígrados
DESCASC
Racha de viento máxima en m/sg (hora)
DESCASC
Velocidad máxima media en intervalos de 10 minutos(hora)
DESCASC
Precipitaciones diarias en mm
DESCASC
Precipitaciones de 00:00 a 06:00 en mm
DESCASC
Precipitaciones de 06:00 a 12:00 en mm
DESCASC
Precipitaciones de 12:00 a 18:00 en mm
DESCASC
Precipitaciones de 18:00 a 24:00 en mm
DESCASC
25-01-2020 14 (04:10) 9.8 (05:40) 11.9 18.89 (04:50) 10.83 (04:50) 65.6 33.2 26.8 3.2 2.4
24-01-2020 15.9 (13:50) 10.6 (02:00) 13.3 11.67 (19:10) 8.06 (19:30) 14.6 11.8 0 0.2 2.6
23-01-2020 15 (15:30) 9.9 (10:20) 12.4 15 (09:00) 8.61 (15:50) 34.8 1 31.2 0 2.6
22-01-2020 13.7 (14:10) 8.9 (00:00) 11.3 10.56 (21:40) 5.83 (21:50) 26.4 15.6 10.8 0 0
21-01-2020 13.9 (14:40) 8.9 (00:00) 11.4 7.78 (06:40) 3.89 (19:10) 15.6 0 0 0 15.6
20-01-2020 12.3 (00:10) 8.6 (00:00) 10.5 8.89 (01:10) 5.28 (05:50) 0 0 0 0 0
19-01-2020 15.9 (03:00) 12 (00:00) 13.9 15.56 (03:10) 7.78 (04:20) 0 0 0 0 0
18-01-2020 17.1 (14:00) 11.9 (07:50) 14.5 5 (04:50) 3.61 (04:50) 0 0 0 0 0
17-01-2020 20.7 (16:10) 10.6 (06:00) 15.7 10 (13:20) 4.44 (13:20) 0 0 0 0 0
16-01-2020 17.4 (12:10) 9.9 (08:00) 13.6 5.28 (04:30) 3.61 (03:20) 0 0 0 0 0

Gráficas

Temp. máximas Temp. mínimas Temp. medias Precipitaciones Rachas de viento máximas Velocidades máximas media en intervalos de 10 minutos

Datos horarios

Fecha y hora oficial Temperatura (ºC) Velocidad del viento (km/h) Dirección del viento Racha (km/h) Dirección de racha Precipitación (mm) Presión (hPa) Tendencia (hPa) Humedad (%)
2020-01-26 23:00:00 12.6 9 Noroeste 22 Noroeste 0 -- -- 60
2020-01-26 22:00:00 13.1 10 Noroeste 24 Noroeste 0 -- -- 57
2020-01-26 21:00:00 13.5 10 Noroeste 18 Noroeste 0 -- -- 56
2020-01-26 20:00:00 14.3 10 Norte 21 Norte 0 -- -- 52
2020-01-26 19:00:00 15.1 10 Norte 26 Norte 0 -- -- 50
2020-01-26 18:00:00 16.4 13 Norte 30 Norte 0 -- -- 45
2020-01-26 17:00:00 17.4 13 Norte 35 Norte 0 -- -- 42
2020-01-26 16:00:00 17.8 14 Norte 32 Noroeste 0 -- -- 45
2020-01-26 15:00:00 17.3 15 Norte 35 Norte 0.2 -- -- 43
2020-01-26 14:00:00 16.8 13 Norte 31 Noroeste 0 -- -- 49
2020-01-26 13:00:00 15.9 15 Noroeste 32 Noroeste 0 -- -- 56
2020-01-26 12:00:00 15 17 Norte 33 Noroeste 0 -- -- 61
2020-01-26 11:00:00 14.6 12 Norte 20 Norte 0 -- -- 66
2020-01-26 10:00:00 13.7 3 Sudoeste 7 Oeste 0.2 -- -- 75
2020-01-26 09:00:00 11.6 4 Oeste 15 Nordeste 0 -- -- 78
2020-01-26 08:00:00 11.1 5 Nordeste 10 Norte 0 -- -- 81
2020-01-26 07:00:00 11.1 3 Norte 14 Noroeste 0 -- -- 85
2020-01-26 06:00:00 11.3 6 Noroeste 17 Noroeste 0 -- -- 84
2020-01-26 05:00:00 11.6 10 Noroeste 19 Noroeste 0.2 -- -- 82
2020-01-26 04:00:00 11.2 2 Norte 8 Norte 0 -- -- 86
2020-01-26 03:00:00 11.1 6 Norte 10 Norte 0 -- -- 85
2020-01-26 02:00:00 10.8 3 Noroeste 9 Noroeste 0 -- -- 87
2020-01-26 01:00:00 10.7 5 Norte 12 Nordeste 0.2 -- -- 89
2020-01-26 00:00:00 11 5 Nordeste 14 Nordeste 0 -- -- 88
2020-01-25 23:00:00 11.5 3 Nordeste 13 Nordeste 0 -- -- 87
2020-01-25 22:00:00 11.8 5 Este 10 Este 0.2 -- -- 88
2020-01-25 21:00:00 12.4 0 Calma 16 Sur 0 -- -- 85
2020-01-25 20:00:00 12.3 10 Sudeste 19 Este 1.4 -- -- 89
2020-01-25 19:00:00 12.6 2 Nordeste 10 Sudeste 0.8 -- -- 88
2020-01-25 18:00:00 12.9 2 Este 7 Norte 0.2 -- -- 87
2020-01-25 17:00:00 12.4 6 Este 18 Sudeste 1.2 -- -- 86
2020-01-25 16:00:00 13.1 10 Sudeste 30 Sudeste 0 -- -- 80
2020-01-25 15:00:00 13.2 10 Sudeste 22 Sur 0.2 -- -- 83
2020-01-25 14:00:00 12.7 11 Sur 30 Sudeste 1.4 -- -- 86
2020-01-25 13:00:00 13.4 10 Sudeste 25 Sudeste 0.2 -- -- 81
2020-01-25 12:00:00 13.3 5 Sudeste 10 Sudeste 0.2 -- -- 83
2020-01-25 11:00:00 11.2 4 Nordeste 12 Nordeste 0.8 -- -- 91
2020-01-25 10:00:00 10.6 5 Norte 18 Sudeste 2.6 -- -- 92
2020-01-25 09:00:00 10.9 3 Nordeste 17 Nordeste 0.2 -- -- 87
2020-01-25 08:00:00 10 7 Este 17 Este 0 -- -- 91
2020-01-25 07:00:00 9.9 6 Nordeste 37 Sur 23 -- -- 94
2020-01-25 06:00:00 10.2 20 Norte 52 Este 1 -- -- 84
2020-01-25 05:00:00 13.7 33 Sudeste 68 Sudeste 0.2 -- -- 88
2020-01-25 04:00:00 13.9 12 Sudeste 35 Sudeste 0 -- -- 89
2020-01-25 03:00:00 12.4 18 Este 30 Sudeste 3 -- -- 91
2020-01-25 02:00:00 10.7 13 Este 27 Nordeste 4.4 -- -- 94
2020-01-25 01:00:00 10.1 13 Nordeste 28 Norte 24.6 -- -- 95
2020-01-25 00:00:00 13.4 11 Norte 32 Noroeste 1.4 -- -- 84
2020-01-24 23:00:00 13.9 19 Sudeste 37 Sudeste 0 -- -- 85
2020-01-24 22:00:00 14.1 17 Sudeste 35 Sudeste 0.2 -- -- 86
2020-01-24 21:00:00 14.2 16 Sudeste 37 Sur 0.4 -- -- 85
2020-01-24 20:00:00 14.2 25 Sur 42 Sur 0.4 -- -- 87
2020-01-24 19:00:00 14.5 19 Sur 39 Sur 0.2 -- -- 84
2020-01-24 18:00:00 14.6 19 Sur 34 Sur 0 -- -- 81
2020-01-24 17:00:00 14.7 12 Sudeste 30 Sur 0 -- -- 79
2020-01-24 16:00:00 15 18 Sur 36 Sur 0 -- -- 79
2020-01-24 15:00:00 15.2 15 Sur 32 Sur 0 -- -- 74
2020-01-24 14:00:00 15.7 8 Sudeste 20 Sur 0.2 -- -- 70
2020-01-24 13:00:00 15 6 Sudeste 17 Sudeste 0 -- -- 69
2020-01-24 12:00:00 13.5 4 Oeste 8 Oeste 0 -- -- 79
2020-01-24 11:00:00 12.3 3 Norte 10 Nordeste 0 -- -- 83
2020-01-24 10:00:00 11.4 5 Nordeste 9 Noroeste 0 -- -- 85
2020-01-24 09:00:00 11.2 6 Norte 12 Norte 0 -- -- 85
2020-01-24 08:00:00 11.3 4 Nordeste 14 Este 0 -- -- 84
2020-01-24 07:00:00 11.7 7 Este 14 Nordeste 0 -- -- 78
2020-01-24 06:00:00 11.2 2 Norte 8 Este 0 -- -- 83
2020-01-24 05:00:00 11.3 4 Nordeste 14 Sudeste 0.2 -- -- 84
2020-01-24 04:00:00 10.9 9 Sudeste 18 Sudeste 0.2 -- -- 85
2020-01-24 03:00:00 10.8 2 Este 22 Este 0.2 -- -- 91
2020-01-24 02:00:00 10.6 10 Este 17 Este 7.2 -- -- 93
2020-01-24 01:00:00 11.1 8 Noroeste 18 Noroeste 4 -- -- 91
2020-01-24 00:00:00 12.9 9 Noroeste 29 Sur 2.2 -- -- 83
2020-01-23 23:00:00 14.6 15 Sur 31 Sur 0.2 -- -- 81
2020-01-23 22:00:00 14.5 13 Sudeste 40 Sudeste 0 -- -- 78
2020-01-23 21:00:00 14.8 13 Sudeste 44 Sur 0 -- -- 72
2020-01-23 20:00:00 14.8 21 Sudeste 51 Sur 0.2 -- -- 75
2020-01-23 19:00:00 14.7 10 Sudeste 38 Sur 0 -- -- 79
2020-01-23 18:00:00 14.5 11 Sudeste 36 Sudeste 0 -- -- 81
2020-01-23 17:00:00 14.6 18 Sur 43 Sur 0 -- -- 81
2020-01-23 16:00:00 14.6 30 Sur 43 Sur 0 -- -- 79
2020-01-23 15:00:00 14.7 17 Sur 40 Sur 0 -- -- 79
2020-01-23 14:00:00 11.1 6 Oeste 25 Oeste 0 -- -- 86
2020-01-23 13:00:00 10.6 7 Este 33 Sudoeste 0 -- -- 85
2020-01-23 12:00:00 10.8 3 Sudoeste 26 Nordeste 0.2 -- -- 83
2020-01-23 11:00:00 10 15 Este 33 Este 0.2 -- -- 80
2020-01-23 10:00:00 11.1 14 Noroeste 51 Sudeste 0 -- -- 79
2020-01-23 09:00:00 13 28 Sudeste 54 Sudeste 1.4 -- -- 81
2020-01-23 08:00:00 10.9 9 Este 38 Este 14.8 -- -- 87
2020-01-23 07:00:00 11 18 Sudeste 45 Sudeste 14.6 -- -- 88
2020-01-23 06:00:00 13.7 19 Sudeste 45 Sudeste 0 -- -- 84
2020-01-23 05:00:00 14.2 28 Sur 46 Sur 0.2 -- -- 84
2020-01-23 04:00:00 13.1 19 Sudeste 45 Sur 0.2 -- -- 79
2020-01-23 03:00:00 14.1 18 Sur 44 Sudeste 0 -- -- 77
2020-01-23 02:00:00 14 24 Sur 43 Sur 0 -- -- 80
2020-01-23 01:00:00 13.1 19 Sudeste 33 Sur 0.6 -- -- 83
2020-01-23 00:00:00 13.5 17 Sudeste 37 Sudeste 0 -- -- 74
2020-01-22 23:00:00 13.3 13 Sudeste 35 Sudeste 0 -- -- 74
2020-01-22 22:00:00 13.1 15 Sudeste 38 Sudeste 0 -- -- 70
2020-01-22 21:00:00 12.9 13 Sudeste 34 Sudeste 0 -- -- 73
2020-01-22 20:00:00 13 19 Sudeste 32 Sudeste 0 -- -- 72
2020-01-22 19:00:00 12.7 12 Sudeste 22 Este 0 -- -- 68
2020-01-22 18:00:00 12.7 15 Sudeste 30 Sudeste 0 -- -- 71
2020-01-22 17:00:00 12.8 3 Oeste 18 Oeste 0 -- -- 75
2020-01-22 16:00:00 12.5 7 Oeste 15 Noroeste 0 -- -- 74
2020-01-22 15:00:00 13.6 2 Norte 21 Sudeste 0 -- -- 63
2020-01-22 14:00:00 13.6 10 Sudeste 26 Sudeste 0 -- -- 63
2020-01-22 13:00:00 13.5 10 Sudeste 27 Sudeste 0 -- -- 71
2020-01-22 12:00:00 11.3 8 Sur 24 Este 0.2 -- -- 81
2020-01-22 11:00:00 10 14 Este 25 Sudeste 2.4 -- -- 88
2020-01-22 10:00:00 10.1 15 Sudeste 31 Sudeste 2 -- -- 86
2020-01-22 09:00:00 10.4 12 Sudeste 29 Este 0.2 -- -- 84
2020-01-22 08:00:00 9.1 3 Nordeste 24 Este 2.4 -- -- 91
2020-01-22 07:00:00 9.6 19 Sudeste 27 Sudeste 3.6 -- -- 92
2020-01-22 06:00:00 9.1 8 Este 17 Sudeste 2.8 -- -- 91
2020-01-22 05:00:00 9.2 9 Este 18 Este 6.4 -- -- 92
2020-01-22 04:00:00 9.6 4 Nordeste 27 Sudeste 3.4 -- -- 90
2020-01-22 03:00:00 10.3 12 Sudeste 23 Sudeste 0.6 -- -- 82
2020-01-22 02:00:00 10.4 13 Sudeste 24 Sudeste 0.4 -- -- 82
2020-01-22 01:00:00 10.1 14 Sudeste 29 Sudeste 2 -- -- 86
2020-01-22 00:00:00 10.6 10 Sudeste 25 Sudeste 0.4 -- -- 83
2020-01-21 23:00:00 10.3 11 Sudeste 23 Sudeste 0 -- -- 84
2020-01-21 22:00:00 10 2 Nordeste 18 Sudeste 0.4 -- -- 87
2020-01-21 21:00:00 10.5 11 Sudeste 22 Sudeste 2.6 -- -- 85
2020-01-21 20:00:00 10.6 11 Sudoeste 23 Oeste 9.4 -- -- 87
2020-01-21 19:00:00 11 12 Oeste 24 Oeste 2.8 -- -- 83
2020-01-21 18:00:00 12.6 8 Sur 15 Sur 0 -- -- 76
2020-01-21 17:00:00 13 5 Sudoeste 15 Sudoeste 0 -- -- 73
2020-01-21 16:00:00 13.5 7 Sudoeste 12 Sudoeste 0 -- -- 57
2020-01-21 15:00:00 13.8 5 Sudoeste 12 Oeste 0 -- -- 50
2020-01-21 14:00:00 13.3 7 Oeste 17 Noroeste 0 -- -- 53
2020-01-21 13:00:00 13.4 9 Oeste 26 Noroeste 0 -- -- 54
2020-01-21 12:00:00 11.9 9 Noroeste 24 Noroeste 0 -- -- 58
2020-01-21 11:00:00 10.7 8 Noroeste 23 Noroeste 0 -- -- 67